Time;durP1;ratioP1;P1;durP2;ratioP2;P2;SDS_P1;SDS_P2;PMS_P1;PMS_P2;Temp;Humidity;BMP_temperature;BMP_pressure;BME280_temperature;BME280_humidity;BME280_pressure;Samples;Min_cycle;Max_cycle;Signal;HPM_P1;HPM_P2
2024/01/10 00:01:53;;;;;;;;;48.25;39.00;;;;;;;;5050142;28;29682;-80
2024/01/10 00:04:18;;;;;;;;;52.25;42.75;;;;;;;;5051578;28;28480;-81
2024/01/10 00:06:44;;;;;;;;;47.25;37.00;;;;;;;;5037993;28;28694;-79
2024/01/10 00:09:10;;;;;;;;;44.50;36.00;;;;;;;;5051969;28;28402;-81
2024/01/10 00:11:35;;;;;;;;;46.25;33.00;;;;;;;;5052365;28;28430;-83
2024/01/10 00:14:03;;;;;;;;;56.00;42.75;;;;;;;;5048399;28;28562;-81
2024/01/10 00:16:28;;;;;;;;;44.25;30.50;;;;;;;;5043254;28;27829;-83
2024/01/10 00:18:53;;;;;;;;;60.50;41.50;;;;;;;;5052576;28;27964;-81
2024/01/10 00:21:19;;;;;;;;;45.50;40.00;;;;;;;;5053732;28;27903;-82
2024/01/10 00:23:44;;;;;;;;;55.00;42.50;;;;;;;;5055044;28;28334;-80
2024/01/10 00:26:09;;;;;;;;;48.75;42.75;;;;;;;;5054870;28;27788;-81
2024/01/10 00:28:35;;;;;;;;;51.75;40.00;;;;;;;;5051537;28;28069;-81
2024/01/10 00:31:00;;;;;;;;;56.00;39.75;;;;;;;;5030772;28;28561;-80
2024/01/10 00:33:25;;;;;;;;;60.25;43.75;;;;;;;;5045740;28;30514;-81
2024/01/10 00:35:51;;;;;;;;;45.00;38.50;;;;;;;;5051956;28;28238;-81
2024/01/10 00:38:16;;;;;;;;;51.25;38.75;;;;;;;;5050013;28;28477;-81
2024/01/10 00:40:42;;;;;;;;;56.00;40.50;;;;;;;;5050298;28;29367;-80
2024/01/10 00:43:07;;;;;;;;;45.25;36.25;;;;;;;;5052649;28;28944;-81
2024/01/10 00:45:33;;;;;;;;;49.50;42.00;;;;;;;;5054769;28;28021;-82
2024/01/10 00:47:58;;;;;;;;;54.50;40.00;;;;;;;;5055006;28;27800;-82
2024/01/10 00:50:24;;;;;;;;;52.75;42.25;;;;;;;;5055010;28;27933;-81
2024/01/10 00:52:49;;;;;;;;;52.25;41.25;;;;;;;;5053757;28;29309;-81
2024/01/10 00:55:14;;;;;;;;;46.50;37.75;;;;;;;;5053234;28;28497;-79
2024/01/10 00:57:40;;;;;;;;;52.50;41.75;;;;;;;;5055633;28;27868;-83
2024/01/10 01:00:09;;;;;;;;;45.25;39.00;;;;;;;;5054005;28;27956;-81
2024/01/10 01:02:34;;;;;;;;;48.00;37.75;;;;;;;;5054077;28;28229;-82
2024/01/10 01:05:00;;;;;;;;;43.25;37.00;;;;;;;;5053824;28;28683;-81
2024/01/10 01:07:25;;;;;;;;;55.25;40.00;;;;;;;;5054048;28;28410;-82
2024/01/10 01:09:51;;;;;;;;;56.75;41.25;;;;;;;;5054972;28;28207;-81
2024/01/10 01:12:16;;;;;;;;;56.75;43.00;;;;;;;;5052138;28;28432;-82
2024/01/10 01:14:41;;;;;;;;;52.25;41.00;;;;;;;;5034221;28;28419;-80
2024/01/10 01:17:07;;;;;;;;;52.00;41.50;;;;;;;;5047051;28;28216;-83
2024/01/10 01:19:32;;;;;;;;;57.50;44.00;;;;;;;;5042017;28;28063;-83
2024/01/10 01:21:57;;;;;;;;;47.00;39.00;;;;;;;;5052574;28;28513;-81
2024/01/10 01:24:23;;;;;;;;;52.50;42.25;;;;;;;;5039546;28;27934;-81
2024/01/10 01:26:48;;;;;;;;;55.25;41.75;;;;;;;;5060173;28;27846;-81
2024/01/10 01:29:13;;;;;;;;;57.75;43.25;;;;;;;;5043367;28;28237;-81
2024/01/10 01:31:39;;;;;;;;;50.75;41.50;;;;;;;;5038843;28;28443;-83
2024/01/10 01:34:04;;;;;;;;;58.75;39.75;;;;;;;;5047353;28;28350;-82
2024/01/10 01:36:29;;;;;;;;;54.00;40.75;;;;;;;;5036600;28;28280;-82
2024/01/10 01:38:55;;;;;;;;;47.25;41.00;;;;;;;;5052971;28;28477;-81
2024/01/10 01:41:20;;;;;;;;;39.25;32.50;;;;;;;;5051430;28;28181;-79
2024/01/10 01:43:45;;;;;;;;;47.00;38.25;;;;;;;;5038653;28;28533;-79
2024/01/10 01:46:11;;;;;;;;;46.25;39.50;;;;;;;;5048284;28;28041;-79
2024/01/10 01:48:37;;;;;;;;;48.75;40.50;;;;;;;;5049115;28;28939;-80
2024/01/10 01:51:04;;;;;;;;;48.00;40.00;;;;;;;;5048797;28;29637;-81
2024/01/10 01:53:30;;;;;;;;;50.50;39.75;;;;;;;;5029182;28;28405;-79
2024/01/10 01:55:55;;;;;;;;;58.50;43.00;;;;;;;;5048687;28;28417;-83
2024/01/10 01:58:22;;;;;;;;;55.00;43.50;;;;;;;;5048905;28;27985;-80
2024/01/10 02:00:48;;;;;;;;;50.00;37.75;;;;;;;;5033516;28;30738;-83
2024/01/10 02:03:13;;;;;;;;;57.50;42.25;;;;;;;;5051588;28;28579;-81
2024/01/10 02:05:39;;;;;;;;;53.75;39.75;;;;;;;;5050568;28;27783;-80
2024/01/10 02:08:04;;;;;;;;;53.25;38.25;;;;;;;;5047851;28;27903;-81
2024/01/10 02:10:29;;;;;;;;;43.75;37.75;;;;;;;;5049832;28;30917;-80
2024/01/10 02:12:55;;;;;;;;;50.25;42.50;;;;;;;;5050877;28;27845;-80
2024/01/10 02:15:20;;;;;;;;;44.00;37.75;;;;;;;;5050817;28;28343;-82
2024/01/10 02:17:45;;;;;;;;;52.25;43.25;;;;;;;;5044037;28;28029;-79
2024/01/10 02:20:12;;;;;;;;;56.00;40.50;;;;;;;;5049978;28;28008;-80
2024/01/10 02:22:37;;;;;;;;;50.75;42.00;;;;;;;;5045191;28;27889;-75
2024/01/10 02:25:12;;;;;;;;;60.25;43.00;;;;;;;;5037025;28;28437;-74
2024/01/10 02:27:38;;;;;;;;;46.50;37.25;;;;;;;;5048969;28;28374;-74
2024/01/10 02:30:04;;;;;;;;;48.00;39.75;;;;;;;;5039557;28;28691;-74
2024/01/10 02:32:29;;;;;;;;;45.75;40.00;;;;;;;;5027385;28;29016;-76
2024/01/10 02:34:54;;;;;;;;;50.50;38.50;;;;;;;;5038879;28;28540;-75
2024/01/10 02:37:20;;;;;;;;;49.75;38.25;;;;;;;;5042835;28;28438;-74
2024/01/10 02:39:45;;;;;;;;;43.50;36.75;;;;;;;;5039604;28;29385;-75
2024/01/10 02:42:11;;;;;;;;;59.75;42.25;;;;;;;;5039638;28;28739;-74
2024/01/10 02:44:36;;;;;;;;;55.00;42.50;;;;;;;;5036575;28;28454;-75
2024/01/10 02:47:01;;;;;;;;;57.75;43.25;;;;;;;;5038082;28;28318;-74
2024/01/10 02:49:26;;;;;;;;;40.25;37.00;;;;;;;;5038930;28;28633;-71
2024/01/10 02:51:51;;;;;;;;;52.50;41.75;;;;;;;;5040346;28;28553;-75
2024/01/10 02:54:17;;;;;;;;;44.50;34.25;;;;;;;;5039054;28;28473;-73
2024/01/10 02:56:42;;;;;;;;;56.25;42.75;;;;;;;;5037810;28;27863;-74
2024/01/10 02:59:07;;;;;;;;;48.75;39.25;;;;;;;;5039747;28;28437;-76
2024/01/10 03:01:33;;;;;;;;;45.50;39.50;;;;;;;;5035836;28;28469;-74
2024/01/10 03:03:58;;;;;;;;;49.50;39.00;;;;;;;;5038520;28;28145;-73
2024/01/10 03:06:24;;;;;;;;;51.75;40.00;;;;;;;;5039391;28;28982;-74
2024/01/10 03:08:49;;;;;;;;;56.75;40.75;;;;;;;;5038760;28;28789;-75
2024/01/10 03:11:15;;;;;;;;;47.00;38.75;;;;;;;;5028650;28;29518;-73
2024/01/10 03:13:40;;;;;;;;;40.00;34.50;;;;;;;;5036252;28;28326;-75
2024/01/10 03:16:05;;;;;;;;;49.00;36.25;;;;;;;;5040765;28;28587;-73
2024/01/10 03:18:31;;;;;;;;;42.50;37.00;;;;;;;;5038972;28;29719;-74
2024/01/10 03:20:56;;;;;;;;;52.50;37.00;;;;;;;;5030620;28;28668;-74
2024/01/10 03:23:21;;;;;;;;;41.50;36.25;;;;;;;;5029701;28;28723;-74
2024/01/10 03:25:47;;;;;;;;;54.75;39.75;;;;;;;;5029857;28;29502;-74
2024/01/10 03:28:15;;;;;;;;;58.25;42.25;;;;;;;;5026170;28;29103;-74
2024/01/10 03:30:40;;;;;;;;;37.25;34.25;;;;;;;;5016526;28;28569;-72
2024/01/10 03:33:05;;;;;;;;;43.50;36.75;;;;;;;;5026052;28;28553;-73
2024/01/10 03:35:30;;;;;;;;;42.00;35.75;;;;;;;;5028165;28;29343;-73
2024/01/10 03:37:56;;;;;;;;;55.25;40.50;;;;;;;;5028081;28;30372;-73
2024/01/10 03:40:21;;;;;;;;;38.75;31.25;;;;;;;;5023500;28;28430;-74
2024/01/10 03:42:46;;;;;;;;;54.25;39.00;;;;;;;;5019076;28;28927;-74
2024/01/10 03:45:12;;;;;;;;;52.50;38.50;;;;;;;;5023946;28;29027;-72
2024/01/10 03:47:37;;;;;;;;;53.25;37.75;;;;;;;;5023385;28;28889;-73
2024/01/10 03:50:02;;;;;;;;;46.00;37.50;;;;;;;;5024713;28;29347;-76
2024/01/10 03:52:27;;;;;;;;;52.75;40.00;;;;;;;;5018238;28;28860;-73
2024/01/10 03:54:53;;;;;;;;;45.50;33.25;;;;;;;;5025639;28;29639;-75
2024/01/10 03:57:18;;;;;;;;;46.75;37.50;;;;;;;;5021926;28;29177;-74
2024/01/10 03:59:43;;;;;;;;;40.75;33.50;;;;;;;;5029821;28;28715;-75
2024/01/10 04:02:09;;;;;;;;;42.25;31.50;;;;;;;;5032154;28;28366;-74
2024/01/10 04:04:36;;;;;;;;;45.00;36.50;;;;;;;;5028445;28;28286;-74
2024/01/10 04:07:01;;;;;;;;;47.25;38.50;;;;;;;;5029038;28;28612;-74
2024/01/10 04:09:27;;;;;;;;;45.00;38.25;;;;;;;;5030369;28;28552;-75
2024/01/10 04:11:52;;;;;;;;;48.75;37.50;;;;;;;;5021051;28;28419;-73
2024/01/10 04:14:17;;;;;;;;;46.50;37.00;;;;;;;;5035889;28;28540;-73
2024/01/10 04:16:42;;;;;;;;;54.00;37.25;;;;;;;;5034859;28;28615;-74
2024/01/10 04:19:08;;;;;;;;;44.50;36.75;;;;;;;;5034321;28;28857;-73
2024/01/10 04:21:33;;;;;;;;;39.00;35.75;;;;;;;;5018837;28;28470;-74
2024/01/10 04:23:58;;;;;;;;;49.75;39.75;;;;;;;;5023439;28;28716;-75
2024/01/10 04:26:23;;;;;;;;;50.75;38.25;;;;;;;;5024848;28;28787;-74
2024/01/10 04:28:49;;;;;;;;;55.50;39.75;;;;;;;;5027643;28;29639;-73
2024/01/10 04:31:14;;;;;;;;;51.75;41.00;;;;;;;;5018384;28;28721;-74
2024/01/10 04:33:39;;;;;;;;;51.25;39.00;;;;;;;;5020005;28;29685;-74
2024/01/10 04:36:04;;;;;;;;;48.25;39.00;;;;;;;;5013012;28;28545;-73
2024/01/10 04:38:30;;;;;;;;;45.00;36.25;;;;;;;;5022890;28;28591;-72
2024/01/10 04:40:55;;;;;;;;;44.25;35.75;;;;;;;;5023750;28;28740;-73
2024/01/10 04:43:20;;;;;;;;;52.75;41.75;;;;;;;;5013269;28;28611;-72
2024/01/10 04:45:46;;;;;;;;;47.00;39.75;;;;;;;;5022131;28;30734;-72
2024/01/10 04:48:11;;;;;;;;;47.00;38.50;;;;;;;;5022283;28;28658;-72
2024/01/10 04:50:36;;;;;;;;;56.00;38.75;;;;;;;;5015224;28;28617;-73
2024/01/10 04:53:01;;;;;;;;;52.75;40.00;;;;;;;;5023707;28;28870;-73
2024/01/10 04:55:27;;;;;;;;;44.00;34.00;;;;;;;;5022350;28;29105;-73
2024/01/10 04:57:52;;;;;;;;;53.75;38.50;;;;;;;;5023134;28;30119;-73
2024/01/10 05:00:18;;;;;;;;;47.25;37.00;;;;;;;;5027382;28;28807;-74
2024/01/10 05:02:43;;;;;;;;;46.25;37.50;;;;;;;;5024994;28;29536;-74
2024/01/10 05:05:08;;;;;;;;;40.75;38.75;;;;;;;;5021464;28;31638;-73
2024/01/10 05:07:33;;;;;;;;;46.75;39.75;;;;;;;;5027609;28;28845;-74
2024/01/10 05:09:59;;;;;;;;;43.50;33.00;;;;;;;;5021192;28;28496;-73
2024/01/10 05:12:24;;;;;;;;;46.50;38.75;;;;;;;;5021519;28;28419;-75
2024/01/10 05:14:50;;;;;;;;;46.75;35.50;;;;;;;;5017996;28;29915;-74
2024/01/10 05:17:15;;;;;;;;;54.00;41.75;;;;;;;;5026200;28;28648;-73
2024/01/10 05:19:40;;;;;;;;;58.25;43.25;;;;;;;;5025968;28;28864;-73
2024/01/10 05:22:06;;;;;;;;;50.00;38.00;;;;;;;;5028093;28;29058;-74
2024/01/10 05:24:31;;;;;;;;;53.25;39.25;;;;;;;;5023108;28;28865;-74
2024/01/10 05:26:57;;;;;;;;;50.75;34.25;;;;;;;;5024599;28;28964;-73
2024/01/10 05:29:23;;;;;;;;;31.75;27.50;;;;;;;;5017098;28;29048;-74
2024/01/10 05:31:49;;;;;;;;;86.75;63.75;;;;;;;;5015422;28;29072;-74
2024/01/10 05:34:14;;;;;;;;;65.00;42.75;;;;;;;;5026939;28;29384;-73
2024/01/10 05:36:39;;;;;;;;;50.25;36.25;;;;;;;;5021002;28;28529;-73
2024/01/10 05:39:05;;;;;;;;;51.75;41.25;;;;;;;;5012968;28;28636;-72
2024/01/10 05:41:30;;;;;;;;;44.00;37.50;;;;;;;;5017983;28;29362;-73
2024/01/10 05:43:55;;;;;;;;;47.75;37.25;;;;;;;;5019778;28;29615;-73
2024/01/10 05:46:20;;;;;;;;;55.25;39.25;;;;;;;;5023327;28;28647;-71
2024/01/10 05:48:46;;;;;;;;;44.25;36.50;;;;;;;;5019283;28;28450;-73
2024/01/10 05:51:12;;;;;;;;;49.50;38.50;;;;;;;;5016428;28;29114;-73
2024/01/10 05:53:37;;;;;;;;;51.00;39.00;;;;;;;;5020515;28;29802;-72
2024/01/10 05:56:03;;;;;;;;;47.50;36.25;;;;;;;;5029067;28;28563;-74
2024/01/10 05:58:28;;;;;;;;;45.50;36.25;;;;;;;;5022556;28;29336;-75
2024/01/10 06:00:53;;;;;;;;;48.75;38.50;;;;;;;;5019037;28;28624;-74
2024/01/10 06:03:20;;;;;;;;;35.00;35.00;;;;;;;;5031062;28;28497;-76
2024/01/10 06:05:45;;;;;;;;;45.25;37.00;;;;;;;;5023072;28;28809;-74
2024/01/10 06:08:10;;;;;;;;;37.75;31.00;;;;;;;;5027287;28;28797;-72
2024/01/10 06:10:36;;;;;;;;;48.00;36.50;;;;;;;;5024207;28;28878;-73
2024/01/10 06:13:01;;;;;;;;;37.75;35.50;;;;;;;;5021979;28;28671;-72
2024/01/10 06:15:26;;;;;;;;;38.25;33.25;;;;;;;;5031583;28;30389;-74
2024/01/10 06:17:52;;;;;;;;;41.75;36.00;;;;;;;;5018333;28;28514;-72
2024/01/10 06:20:18;;;;;;;;;46.00;37.25;;;;;;;;5029255;28;28651;-72
2024/01/10 06:22:43;;;;;;;;;53.75;38.75;;;;;;;;5029898;28;29015;-72
2024/01/10 06:25:08;;;;;;;;;41.25;31.50;;;;;;;;5019654;28;29859;-72
2024/01/10 06:27:34;;;;;;;;;51.00;38.75;;;;;;;;5026397;28;28764;-70
2024/01/10 06:29:59;;;;;;;;;46.25;37.50;;;;;;;;5021857;28;29277;-72
2024/01/10 06:32:25;;;;;;;;;35.25;30.75;;;;;;;;5017973;28;29538;-71
2024/01/10 06:34:51;;;;;;;;;43.25;33.25;;;;;;;;5019737;28;29642;-70
2024/01/10 06:37:16;;;;;;;;;45.50;35.75;;;;;;;;5020609;28;28713;-76
2024/01/10 06:39:41;;;;;;;;;44.25;35.00;;;;;;;;5027023;28;28401;-71
2024/01/10 06:42:08;;;;;;;;;43.50;35.25;;;;;;;;5021580;28;28537;-70
2024/01/10 06:44:33;;;;;;;;;41.00;35.00;;;;;;;;5016752;28;28907;-71
2024/01/10 06:47:00;;;;;;;;;42.00;35.75;;;;;;;;5027713;28;28477;-72
2024/01/10 06:49:27;;;;;;;;;41.25;36.75;;;;;;;;5023679;28;28750;-72
2024/01/10 06:51:52;;;;;;;;;52.50;39.00;;;;;;;;5024355;28;29816;-70
2024/01/10 06:54:18;;;;;;;;;38.50;30.00;;;;;;;;5029048;28;28544;-71
2024/01/10 06:56:52;;;;;;;;;33.25;28.50;;;;;;;;5028055;28;28444;-71
2024/01/10 06:59:17;;;;;;;;;39.00;26.75;;;;;;;;5023859;28;29508;-70
2024/01/10 07:01:43;;;;;;;;;45.50;35.75;;;;;;;;5024561;28;29026;-71
2024/01/10 07:04:08;;;;;;;;;33.25;26.50;;;;;;;;5023378;28;28442;-70
2024/01/10 07:06:33;;;;;;;;;49.00;38.50;;;;;;;;5022025;28;28676;-72
2024/01/10 07:08:58;;;;;;;;;35.25;31.75;;;;;;;;5025461;28;28516;-71
2024/01/10 07:11:24;;;;;;;;;42.50;36.50;;;;;;;;5019626;28;28745;-71
2024/01/10 07:13:49;;;;;;;;;49.00;36.50;;;;;;;;5023635;28;28475;-71
2024/01/10 07:16:15;;;;;;;;;39.50;30.25;;;;;;;;5021012;28;28563;-71
2024/01/10 07:18:40;;;;;;;;;38.25;32.50;;;;;;;;5029115;28;28928;-72
2024/01/10 07:21:05;;;;;;;;;40.50;30.00;;;;;;;;5022375;28;29814;-74
2024/01/10 07:23:32;;;;;;;;;35.75;29.25;;;;;;;;5031119;28;28635;-73
2024/01/10 07:25:57;;;;;;;;;38.25;34.75;;;;;;;;5022839;28;28905;-70
2024/01/10 07:28:22;;;;;;;;;38.25;33.25;;;;;;;;5019495;28;28842;-70
2024/01/10 07:30:48;;;;;;;;;48.25;37.25;;;;;;;;5024964;28;28774;-72
2024/01/10 07:33:15;;;;;;;;;42.50;34.00;;;;;;;;5022399;28;28833;-79
2024/01/10 07:35:41;;;;;;;;;40.00;32.50;;;;;;;;5020120;28;28547;-72
2024/01/10 07:38:09;;;;;;;;;43.50;36.00;;;;;;;;5023041;28;28876;-72
2024/01/10 07:40:34;;;;;;;;;27.75;24.25;;;;;;;;5028256;28;29315;-72
2024/01/10 07:43:00;;;;;;;;;45.00;38.00;;;;;;;;5020757;28;28748;-73
2024/01/10 07:45:25;;;;;;;;;38.25;29.00;;;;;;;;5021107;28;29166;-73
2024/01/10 07:47:50;;;;;;;;;38.25;29.25;;;;;;;;5027098;28;28591;-73
2024/01/10 07:50:16;;;;;;;;;32.50;27.25;;;;;;;;5021401;28;30045;-73
2024/01/10 07:52:42;;;;;;;;;34.25;28.00;;;;;;;;5019983;28;28552;-72
2024/01/10 07:55:08;;;;;;;;;33.25;30.50;;;;;;;;5026625;28;28604;-72
2024/01/10 07:57:33;;;;;;;;;30.25;28.75;;;;;;;;5023796;28;28684;-74
2024/01/10 07:59:59;;;;;;;;;29.75;28.75;;;;;;;;5028667;28;28914;-73
2024/01/10 08:02:24;;;;;;;;;36.00;32.25;;;;;;;;5029016;28;28458;-73
2024/01/10 08:04:49;;;;;;;;;36.00;32.00;;;;;;;;5029423;28;28533;-73
2024/01/10 08:07:15;;;;;;;;;40.25;33.00;;;;;;;;5029151;28;28395;-75
2024/01/10 08:09:40;;;;;;;;;37.00;30.25;;;;;;;;5027914;28;29822;-74
2024/01/10 08:12:05;;;;;;;;;27.00;25.00;;;;;;;;5022142;28;28794;-72
2024/01/10 08:14:30;;;;;;;;;33.00;27.25;;;;;;;;5029389;28;28443;-74
2024/01/10 08:17:00;;;;;;;;;43.75;34.75;;;;;;;;5028806;28;28410;-75
2024/01/10 08:19:25;;;;;;;;;42.75;32.75;;;;;;;;5023719;28;30187;-72
2024/01/10 08:21:51;;;;;;;;;42.50;34.25;;;;;;;;5021190;28;28623;-73
2024/01/10 08:24:17;;;;;;;;;43.00;34.75;;;;;;;;5026079;28;28571;-73
2024/01/10 08:26:42;;;;;;;;;37.50;33.25;;;;;;;;5024469;28;29190;-74
2024/01/10 08:29:08;;;;;;;;;39.25;32.75;;;;;;;;5025324;28;31643;-73
2024/01/10 08:31:33;;;;;;;;;42.25;34.50;;;;;;;;5022496;28;28513;-73
2024/01/10 08:33:58;;;;;;;;;49.75;32.25;;;;;;;;5025190;28;28757;-73
2024/01/10 08:36:24;;;;;;;;;43.25;35.50;;;;;;;;5031346;28;28860;-74
2024/01/10 08:38:49;;;;;;;;;40.25;31.25;;;;;;;;5024731;28;29855;-74
2024/01/10 08:41:15;;;;;;;;;46.75;34.75;;;;;;;;5024104;28;28758;-72
2024/01/10 08:43:41;;;;;;;;;32.50;23.50;;;;;;;;5028443;28;28500;-74
2024/01/10 08:46:08;;;;;;;;;34.25;29.25;;;;;;;;5026404;28;28821;-73
2024/01/10 08:48:33;;;;;;;;;40.25;34.50;;;;;;;;5027196;28;28667;-73
2024/01/10 08:50:58;;;;;;;;;36.75;29.50;;;;;;;;5021412;28;29547;-73
2024/01/10 08:53:24;;;;;;;;;39.50;34.25;;;;;;;;5028884;28;28520;-72
2024/01/10 08:55:49;;;;;;;;;23.50;23.50;;;;;;;;5026537;28;30151;-74
2024/01/10 08:58:15;;;;;;;;;41.00;31.75;;;;;;;;5026237;28;28477;-74
2024/01/10 09:00:40;;;;;;;;;40.25;33.00;;;;;;;;5022203;28;28858;-73
2024/01/10 09:03:05;;;;;;;;;43.50;34.50;;;;;;;;5026750;28;28533;-74
2024/01/10 09:05:31;;;;;;;;;41.25;33.50;;;;;;;;5022844;28;28686;-73
2024/01/10 09:07:56;;;;;;;;;38.50;34.50;;;;;;;;5028891;28;28461;-74
2024/01/10 09:10:22;;;;;;;;;40.25;35.50;;;;;;;;5028936;28;28693;-73
2024/01/10 09:12:47;;;;;;;;;37.75;31.25;;;;;;;;5029675;28;28482;-73
2024/01/10 09:15:14;;;;;;;;;40.75;35.50;;;;;;;;5026217;28;28575;-72
2024/01/10 09:17:40;;;;;;;;;47.25;38.00;;;;;;;;5027110;28;30672;-73
2024/01/10 09:20:08;;;;;;;;;46.75;36.75;;;;;;;;5026960;28;28563;-70
2024/01/10 09:22:33;;;;;;;;;39.25;33.75;;;;;;;;5024542;28;28587;-70
2024/01/10 09:25:03;;;;;;;;;40.75;35.00;;;;;;;;5027584;28;28612;-71
2024/01/10 09:27:28;;;;;;;;;31.75;28.50;;;;;;;;5036711;28;29343;-72
2024/01/10 09:29:53;;;;;;;;;23.75;21.75;;;;;;;;5028379;28;30024;-70
2024/01/10 09:32:19;;;;;;;;;32.50;24.25;;;;;;;;5027564;28;28502;-71
2024/01/10 09:34:45;;;;;;;;;43.25;34.50;;;;;;;;5026448;28;30513;-71
2024/01/10 09:37:10;;;;;;;;;39.25;33.25;;;;;;;;5026095;28;29678;-70
2024/01/10 09:39:35;;;;;;;;;45.00;37.25;;;;;;;;5023849;28;29528;-71
2024/01/10 09:42:01;;;;;;;;;52.00;38.50;;;;;;;;5020804;28;28586;-72
2024/01/10 09:44:27;;;;;;;;;46.50;36.50;;;;;;;;5015969;28;28453;-71
2024/01/10 09:46:54;;;;;;;;;45.75;35.25;;;;;;;;5026941;28;28489;-71
2024/01/10 09:49:21;;;;;;;;;39.50;33.50;;;;;;;;5025707;28;29286;-72
2024/01/10 09:51:48;;;;;;;;;47.50;35.75;;;;;;;;5027455;28;28572;-71
2024/01/10 09:54:15;;;;;;;;;38.50;31.00;;;;;;;;5027767;28;28726;-72
2024/01/10 09:56:41;;;;;;;;;42.00;35.25;;;;;;;;5027703;28;30197;-71
2024/01/10 09:59:10;;;;;;;;;41.00;30.50;;;;;;;;5027284;28;28445;-71
2024/01/10 10:01:35;;;;;;;;;39.75;31.50;;;;;;;;5026540;28;28509;-72
2024/01/10 10:04:01;;;;;;;;;38.25;35.75;;;;;;;;5020316;28;28933;-71
2024/01/10 10:06:27;;;;;;;;;32.25;25.75;;;;;;;;5018421;28;29326;-71
2024/01/10 10:08:52;;;;;;;;;46.00;36.75;;;;;;;;5024998;28;29362;-71
2024/01/10 10:11:18;;;;;;;;;38.25;31.00;;;;;;;;5009017;28;28463;-71
2024/01/10 10:13:43;;;;;;;;;34.75;29.00;;;;;;;;5025668;28;28742;-70
2024/01/10 10:16:12;;;;;;;;;40.00;30.50;;;;;;;;5015908;28;28738;-72
2024/01/10 10:18:39;;;;;;;;;33.25;26.50;;;;;;;;5021501;28;28796;-70
2024/01/10 10:21:09;;;;;;;;;35.50;32.00;;;;;;;;5026746;28;28604;-71
2024/01/10 10:23:35;;;;;;;;;34.75;25.25;;;;;;;;5017902;28;28883;-70
2024/01/10 10:26:09;;;;;;;;;50.00;33.25;;;;;;;;5028716;28;29681;-71
2024/01/10 10:28:34;;;;;;;;;40.00;33.50;;;;;;;;5028968;28;28799;-72
2024/01/10 10:31:00;;;;;;;;;35.25;28.50;;;;;;;;5025630;28;28697;-71
2024/01/10 10:33:25;;;;;;;;;37.50;33.00;;;;;;;;5025560;28;28856;-70
2024/01/10 10:35:50;;;;;;;;;36.50;30.00;;;;;;;;5026655;28;28528;-71
2024/01/10 10:38:16;;;;;;;;;47.25;36.75;;;;;;;;5028149;28;28949;-71
2024/01/10 10:40:41;;;;;;;;;35.00;32.00;;;;;;;;5026031;28;28557;-72
2024/01/10 10:43:08;;;;;;;;;31.50;27.00;;;;;;;;5008735;28;29134;-71
2024/01/10 10:45:34;;;;;;;;;32.75;30.50;;;;;;;;5006335;28;29969;-72
2024/01/10 10:48:00;;;;;;;;;41.00;35.75;;;;;;;;5013194;28;28552;-71
2024/01/10 10:50:27;;;;;;;;;39.25;30.00;;;;;;;;5008966;28;28684;-71
2024/01/10 10:52:55;;;;;;;;;41.50;33.25;;;;;;;;5010206;28;28531;-70
2024/01/10 10:55:21;;;;;;;;;39.00;34.50;;;;;;;;5023693;28;30511;-72
2024/01/10 10:57:47;;;;;;;;;43.75;36.00;;;;;;;;5027360;28;28513;-71
2024/01/10 11:00:17;;;;;;;;;42.25;35.75;;;;;;;;5028679;28;28278;-71
2024/01/10 11:02:43;;;;;;;;;37.00;33.00;;;;;;;;5028599;28;29454;-71
2024/01/10 11:05:09;;;;;;;;;33.75;27.25;;;;;;;;5028911;28;29540;-70
2024/01/10 11:07:52;;;;;;;;;28.50;27.25;;;;;;;;5029076;28;28503;-71
2024/01/10 11:10:20;;;;;;;;;35.50;31.00;;;;;;;;5040529;28;28619;-70
2024/01/10 11:13:02;;;;;;;;;36.75;31.00;;;;;;;;5026469;28;28989;-72
2024/01/10 11:15:53;;;;;;;;;37.00;33.25;;;;;;;;5038254;28;29990;-71
2024/01/10 11:18:18;;;;;;;;;40.50;32.25;;;;;;;;5030354;28;28434;-71
2024/01/10 11:20:54;;;;;;;;;33.00;29.25;;;;;;;;5030583;28;29108;-70
2024/01/10 11:23:28;;;;;;;;;37.00;34.00;;;;;;;;5028090;28;28526;-70
2024/01/10 11:25:53;;;;;;;;;34.50;28.00;;;;;;;;5030280;28;29139;-70
2024/01/10 11:28:19;;;;;;;;;33.50;32.50;;;;;;;;5027720;28;28463;-70
2024/01/10 11:30:52;;;;;;;;;36.75;27.25;;;;;;;;5027455;28;29693;-70
2024/01/10 11:33:25;;;;;;;;;34.00;30.50;;;;;;;;5025399;28;28564;-70
2024/01/10 11:36:09;;;;;;;;;37.00;32.50;;;;;;;;5018182;28;28474;-70
2024/01/10 11:38:38;;;;;;;;;38.00;29.00;;;;;;;;5024172;28;28564;-70
2024/01/10 11:41:04;;;;;;;;;38.50;33.00;;;;;;;;5020649;28;28405;-69
2024/01/10 11:43:29;;;;;;;;;36.75;31.00;;;;;;;;5022303;28;28906;-70
2024/01/10 11:45:55;;;;;;;;;31.00;26.00;;;;;;;;5022558;28;29642;-70
2024/01/10 11:48:27;;;;;;;;;37.00;29.25;;;;;;;;5024411;28;28632;-70
2024/01/10 11:50:57;;;;;;;;;40.25;33.50;;;;;;;;5024608;28;28741;-71
2024/01/10 11:53:39;;;;;;;;;33.00;28.50;;;;;;;;5023328;28;28696;-70
2024/01/10 11:56:18;;;;;;;;;36.00;31.00;;;;;;;;5024317;28;29615;-70
2024/01/10 11:59:01;;;;;;;;;36.75;33.50;;;;;;;;5017600;28;28901;-71
2024/01/10 12:01:27;;;;;;;;;35.50;30.00;;;;;;;;5019080;28;28641;-70
2024/01/10 12:03:55;;;;;;;;;41.00;33.00;;;;;;;;5017763;28;28963;-71
2024/01/10 12:06:21;;;;;;;;;40.00;29.50;;;;;;;;5018887;28;28592;-69
2024/01/10 12:08:46;;;;;;;;;42.50;36.00;;;;;;;;5019092;28;28440;-70
2024/01/10 12:11:12;;;;;;;;;32.25;28.50;;;;;;;;5022060;28;28760;-71
2024/01/10 12:13:37;;;;;;;;;18.50;16.25;;;;;;;;5021933;28;29063;-71
2024/01/10 12:16:02;;;;;;;;;39.25;30.75;;;;;;;;5024663;28;28494;-70
2024/01/10 12:18:27;;;;;;;;;37.75;29.75;;;;;;;;5029414;28;28629;-68
2024/01/10 12:20:53;;;;;;;;;31.50;27.75;;;;;;;;5022901;28;28451;-71
2024/01/10 12:23:18;;;;;;;;;33.25;27.00;;;;;;;;5025679;28;30127;-70
2024/01/10 12:25:43;;;;;;;;;38.50;33.25;;;;;;;;5025814;28;29384;-70
2024/01/10 12:28:09;;;;;;;;;37.50;33.50;;;;;;;;5020576;28;28496;-70
2024/01/10 12:30:34;;;;;;;;;28.25;26.25;;;;;;;;5022895;28;28476;-70
2024/01/10 12:33:00;;;;;;;;;44.75;33.50;;;;;;;;5020554;28;28674;-69
2024/01/10 12:35:25;;;;;;;;;30.25;25.00;;;;;;;;5022985;28;28403;-70
2024/01/10 12:37:56;;;;;;;;;29.50;25.75;;;;;;;;5025860;28;28481;-70
2024/01/10 12:40:25;;;;;;;;;31.75;29.25;;;;;;;;5024157;28;29042;-73
2024/01/10 12:43:01;;;;;;;;;30.75;28.00;;;;;;;;5022682;28;28855;-71
2024/01/10 12:45:26;;;;;;;;;35.50;30.00;;;;;;;;5022208;28;28643;-70
2024/01/10 12:47:53;;;;;;;;;37.25;31.75;;;;;;;;5018716;28;29010;-71
2024/01/10 12:50:19;;;;;;;;;30.75;28.50;;;;;;;;5026087;28;28587;-71
2024/01/10 12:52:44;;;;;;;;;64.25;49.25;;;;;;;;5018787;28;28504;-70
2024/01/10 12:55:09;;;;;;;;;34.00;24.00;;;;;;;;5028723;28;28465;-70
2024/01/10 12:57:35;;;;;;;;;34.25;30.00;;;;;;;;5024754;28;28546;-71
2024/01/10 13:00:00;;;;;;;;;36.50;32.00;;;;;;;;5017560;28;28386;-70
2024/01/10 13:02:27;;;;;;;;;34.50;32.25;;;;;;;;5025539;28;28879;-70
2024/01/10 13:04:52;;;;;;;;;41.50;33.75;;;;;;;;5023194;28;29008;-72
2024/01/10 13:07:17;;;;;;;;;38.75;32.75;;;;;;;;5024608;28;28974;-73
2024/01/10 13:09:43;;;;;;;;;50.00;37.25;;;;;;;;5018524;28;28620;-72
2024/01/10 13:12:08;;;;;;;;;49.75;38.25;;;;;;;;5019810;28;28378;-77
2024/01/10 13:14:33;;;;;;;;;39.50;33.25;;;;;;;;5025750;28;28482;-73
2024/01/10 13:16:58;;;;;;;;;30.25;24.50;;;;;;;;5021468;28;28473;-72
2024/01/10 13:19:24;;;;;;;;;29.25;25.00;;;;;;;;5029857;28;28668;-72
2024/01/10 13:21:49;;;;;;;;;38.25;31.25;;;;;;;;5023682;28;28372;-74
2024/01/10 13:24:14;;;;;;;;;27.25;21.50;;;;;;;;5025453;28;29322;-75
2024/01/10 13:26:40;;;;;;;;;29.50;22.00;;;;;;;;5018031;28;28716;-73
2024/01/10 13:29:05;;;;;;;;;41.25;35.00;;;;;;;;5017288;28;28754;-74
2024/01/10 13:31:30;;;;;;;;;35.00;28.75;;;;;;;;5027056;28;29813;-73
2024/01/10 13:33:56;;;;;;;;;36.25;32.50;;;;;;;;5023923;28;28746;-73
2024/01/10 13:36:21;;;;;;;;;29.50;28.00;;;;;;;;5026805;28;28469;-73
2024/01/10 13:38:47;;;;;;;;;39.50;33.75;;;;;;;;5023880;28;28814;-74
2024/01/10 13:41:12;;;;;;;;;38.00;31.75;;;;;;;;5033346;28;28540;-73
2024/01/10 13:43:37;;;;;;;;;36.50;30.25;;;;;;;;5027064;28;28785;-73
2024/01/10 13:46:03;;;;;;;;;33.75;24.25;;;;;;;;5029725;28;28535;-75
2024/01/10 13:48:28;;;;;;;;;38.75;33.00;;;;;;;;5028076;28;28438;-74
2024/01/10 13:50:54;;;;;;;;;45.00;35.00;;;;;;;;5026365;28;30515;-73
2024/01/10 13:53:19;;;;;;;;;34.00;28.25;;;;;;;;5028118;28;29152;-74
2024/01/10 13:55:46;;;;;;;;;40.75;31.25;;;;;;;;5017196;28;28871;-72
2024/01/10 13:58:11;;;;;;;;;31.00;26.25;;;;;;;;5026967;28;28764;-73
2024/01/10 14:00:37;;;;;;;;;32.00;29.00;;;;;;;;5026315;28;28433;-72
2024/01/10 14:03:03;;;;;;;;;36.50;26.50;;;;;;;;5027777;28;29406;-71
2024/01/10 14:05:28;;;;;;;;;33.75;26.50;;;;;;;;5029209;28;28767;-73
2024/01/10 14:07:54;;;;;;;;;39.00;29.00;;;;;;;;5028699;28;28412;-74
2024/01/10 14:10:19;;;;;;;;;36.75;28.75;;;;;;;;5027642;28;28473;-70